Time;durP1;ratioP1;P1;durP2;ratioP2;P2;SDS_P1;SDS_P2;PMS_P1;PMS_P2;Temp;Humidity;BMP_temperature;BMP_pressure;BME280_temperature;BME280_humidity;BME280_pressure;Samples;Min_cycle;Max_cycle;Signal;HPM_P1;HPM_P2
2022/09/22 00:00:40;;;;;;;4.95;3.83;;;6.50;99.90;;;;;;5067863;28;20074;-72
2022/09/22 00:03:06;;;;;;;5.82;3.58;;;6.30;99.90;;;;;;5063272;28;20039;-72
2022/09/22 00:05:32;;;;;;;6.47;3.30;;;6.40;99.90;;;;;;5074189;28;20032;-72
2022/09/22 00:07:57;;;;;;;9.02;4.72;;;6.60;99.90;;;;;;5065168;28;20055;-71
2022/09/22 00:10:23;;;;;;;7.07;4.25;;;6.70;99.90;;;;;;5056338;28;20017;-71
2022/09/22 00:12:49;;;;;;;5.47;4.03;;;6.40;99.90;;;;;;5074238;28;20060;-73
2022/09/22 00:15:18;;;;;;;7.97;4.63;;;6.40;99.90;;;;;;5074060;28;20051;-72
2022/09/22 00:17:43;;;;;;;6.88;4.22;;;6.30;99.90;;;;;;5073895;28;20028;-71
2022/09/22 00:20:12;;;;;;;6.43;4.20;;;6.20;99.90;;;;;;5058311;28;20037;-72
2022/09/22 00:22:40;;;;;;;7.88;6.07;;;6.20;99.90;;;;;;5063412;28;20624;-71
2022/09/22 00:25:07;;;;;;;6.85;4.65;;;6.00;99.90;;;;;;5060596;28;20025;-72
2022/09/22 00:27:33;;;;;;;8.95;5.03;;;6.00;99.90;;;;;;5072976;28;20032;-72
2022/09/22 00:29:59;;;;;;;8.88;5.85;;;6.20;99.90;;;;;;5057240;28;20025;-72
2022/09/22 00:32:25;;;;;;;7.75;5.00;;;6.00;99.90;;;;;;5053868;28;20370;-72
2022/09/22 00:34:51;;;;;;;6.03;4.05;;;6.00;99.90;;;;;;5070371;28;20111;-72
2022/09/22 00:37:16;;;;;;;7.68;4.13;;;6.10;99.90;;;;;;5067685;28;20382;-72
2022/09/22 00:39:43;;;;;;;8.65;4.75;;;6.20;99.90;;;;;;5066062;28;20023;-71
2022/09/22 00:42:11;;;;;;;7.22;4.88;;;6.20;99.90;;;;;;5059669;28;20063;-71
2022/09/22 00:44:38;;;;;;;5.15;4.65;;;6.20;99.90;;;;;;5061056;28;20070;-72
2022/09/22 00:47:12;;;;;;;8.57;6.53;;;6.10;99.90;;;;;;5058923;28;20046;-72
2022/09/22 00:50:08;;;;;;;5.80;5.20;;;6.00;99.90;;;;;;5072276;28;20028;-73
2022/09/22 00:52:50;;;;;;;8.05;4.93;;;6.00;99.90;;;;;;5073438;28;20077;-73
2022/09/22 00:55:25;;;;;;;4.75;4.35;;;5.80;99.90;;;;;;5066711;28;20025;-74
2022/09/22 00:57:54;;;;;;;6.53;5.03;;;5.90;99.90;;;;;;5066294;28;20025;-74
2022/09/22 01:00:20;;;;;;;7.63;4.38;;;6.00;99.90;;;;;;5073279;28;20036;-74
2022/09/22 01:02:49;;;;;;;10.82;4.43;;;5.90;99.90;;;;;;5073234;28;20033;-74
2022/09/22 01:05:16;;;;;;;7.03;4.72;;;6.00;99.90;;;;;;5064110;28;20082;-73
2022/09/22 01:07:43;;;;;;;7.45;4.00;;;6.00;99.90;;;;;;5068184;28;20035;-73
2022/09/22 01:10:10;;;;;;;6.18;4.80;;;5.80;99.90;;;;;;5053230;28;20025;-72
2022/09/22 01:12:37;;;;;;;7.97;4.18;;;5.90;99.90;;;;;;5051745;28;20028;-74
2022/09/22 01:15:23;;;;;;;6.80;4.70;;;6.10;99.90;;;;;;5062679;28;20474;-73
2022/09/22 01:18:11;;;;;;;6.20;4.28;;;6.10;99.90;;;;;;5066866;28;20037;-72
2022/09/22 01:21:03;;;;;;;6.55;4.07;;;6.20;99.90;;;;;;5051598;28;20032;-72
2022/09/22 01:23:49;;;;;;;5.43;3.70;;;6.10;99.90;;;;;;5032503;28;20029;-74
2022/09/22 01:26:35;;;;;;;6.85;4.10;;;6.20;99.90;;;;;;5052616;28;20025;-74
2022/09/22 01:29:29;;;;;;;6.57;3.80;;;6.20;99.90;;;;;;5052556;28;20032;-74
2022/09/22 01:32:19;;;;;;;7.05;4.50;;;6.20;99.90;;;;;;5065931;28;20420;-73
2022/09/22 01:35:00;;;;;;;4.82;3.50;;;6.20;99.90;;;;;;5074085;28;20024;-73
2022/09/22 01:37:53;;;;;;;6.95;4.35;;;6.20;99.90;;;;;;5071479;28;20091;-72
2022/09/22 01:40:40;;;;;;;8.05;4.00;;;6.20;99.90;;;;;;5048780;28;20047;-72
2022/09/22 01:43:34;;;;;;;6.03;3.75;;;6.10;99.90;;;;;;5065689;28;20031;-71
2022/09/22 01:46:05;;;;;;;5.65;4.95;;;6.00;99.90;;;;;;5072098;28;20515;-70
2022/09/22 01:48:34;;;;;;;8.60;6.03;;;6.00;99.90;;;;;;5072184;28;20547;-73
2022/09/22 01:51:07;;;;;;;9.32;5.35;;;5.90;99.90;;;;;;5072284;28;20532;-72
2022/09/22 01:53:41;;;;;;;7.03;4.97;;;5.90;99.90;;;;;;5072395;28;20028;-72
2022/09/22 01:56:09;;;;;;;6.35;4.78;;;5.90;99.90;;;;;;5058911;28;20539;-73
2022/09/22 01:58:41;;;;;;;6.30;4.75;;;5.80;99.90;;;;;;5060930;28;20036;-73
2022/09/22 02:01:36;;;;;;;5.28;4.60;;;5.80;99.90;;;;;;5069388;28;20032;-72
2022/09/22 02:04:08;;;;;;;8.50;4.57;;;5.80;99.90;;;;;;5070700;28;20059;-72
2022/09/22 02:06:46;;;;;;;6.63;5.13;;;5.80;99.90;;;;;;5071971;28;20036;-72
2022/09/22 02:09:16;;;;;;;10.05;5.75;;;5.80;99.90;;;;;;5067663;28;20391;-73
2022/09/22 02:11:41;;;;;;;7.13;4.90;;;5.70;99.90;;;;;;5063541;28;20367;-73
2022/09/22 02:14:07;;;;;;;6.97;4.70;;;5.70;99.90;;;;;;5058578;28;20154;-73
2022/09/22 02:16:34;;;;;;;12.63;7.13;;;5.70;99.90;;;;;;5071799;28;20055;-73
2022/09/22 02:19:31;;;;;;;7.35;5.22;;;5.40;99.90;;;;;;5066920;28;20052;-73
2022/09/22 02:21:57;;;;;;;5.95;5.30;;;5.50;99.90;;;;;;5059386;28;20037;-73
2022/09/22 02:24:27;;;;;;;6.75;6.13;;;5.30;99.90;;;;;;5071856;28;20506;-73
2022/09/22 02:26:53;;;;;;;6.28;4.43;;;5.20;99.90;;;;;;5055016;28;20067;-73
2022/09/22 02:29:19;;;;;;;5.88;4.95;;;5.20;99.90;;;;;;5062098;28;20111;-72
2022/09/22 02:31:45;;;;;;;13.55;7.82;;;5.30;99.90;;;;;;5068681;28;20427;-73
2022/09/22 02:34:11;;;;;;;8.48;6.45;;;5.30;99.90;;;;;;5061548;28;20390;-72
2022/09/22 02:36:49;;;;;;;8.57;6.05;;;5.30;99.90;;;;;;5054467;28;20155;-73
2022/09/22 02:39:30;;;;;;;8.50;6.10;;;5.30;99.90;;;;;;5051685;28;20360;-73
2022/09/22 02:42:20;;;;;;;5.75;5.13;;;5.40;99.90;;;;;;5057589;28;20021;-73
2022/09/22 02:44:56;;;;;;;8.02;7.03;;;5.40;99.90;;;;;;5052883;28;20579;-73
2022/09/22 02:47:46;;;;;;;8.50;6.32;;;5.00;99.90;;;;;;5051296;28;20036;-72
2022/09/22 02:50:14;;;;;;;7.75;5.05;;;5.10;99.90;;;;;;5046914;28;20101;-71
2022/09/22 02:52:40;;;;;;;9.48;6.80;;;5.10;99.90;;;;;;5058010;28;20017;-72
2022/09/22 02:55:08;;;;;;;12.65;8.45;;;5.00;99.90;;;;;;5058112;28;20123;-72
2022/09/22 02:57:33;;;;;;;6.05;5.53;;;4.60;99.90;;;;;;5057758;28;20442;-72
2022/09/22 02:59:59;;;;;;;9.70;8.25;;;4.50;99.90;;;;;;5058087;28;20082;-72
2022/09/22 03:02:24;;;;;;;12.73;9.23;;;4.30;99.90;;;;;;5057993;28;20025;-72
2022/09/22 03:04:50;;;;;;;7.05;5.63;;;4.10;99.90;;;;;;5065706;28;20020;-72
2022/09/22 03:07:17;;;;;;;7.32;5.40;;;4.20;99.90;;;;;;5062130;28;20025;-72
2022/09/22 03:09:42;;;;;;;7.55;4.93;;;4.30;99.90;;;;;;5057990;28;20088;-72
2022/09/22 03:12:08;;;;;;;7.15;6.43;;;4.50;99.90;;;;;;5058011;28;20029;-72
2022/09/22 03:14:34;;;;;;;7.70;6.90;;;4.60;99.90;;;;;;5058045;28;20108;-72
2022/09/22 03:16:59;;;;;;;8.95;6.47;;;4.50;99.90;;;;;;5056327;28;20029;-73
2022/09/22 03:19:25;;;;;;;6.82;5.00;;;4.50;99.90;;;;;;5066715;28;20064;-72
2022/09/22 03:21:50;;;;;;;7.82;6.32;;;4.50;99.90;;;;;;5077837;28;20055;-72
2022/09/22 03:24:16;;;;;;;8.25;7.43;;;4.60;99.90;;;;;;5077908;28;20050;-71
2022/09/22 03:26:41;;;;;;;9.07;7.85;;;4.60;99.90;;;;;;5077459;28;20037;-71
2022/09/22 03:29:07;;;;;;;10.68;7.03;;;4.70;99.90;;;;;;5069446;28;20021;-72
2022/09/22 03:31:33;;;;;;;9.25;6.68;;;4.70;99.90;;;;;;5056549;28;20398;-71
2022/09/22 03:33:58;;;;;;;7.32;6.53;;;4.80;99.90;;;;;;5066434;28;20419;-72
2022/09/22 03:36:24;;;;;;;6.60;5.90;;;4.90;99.90;;;;;;5089688;28;20023;-72
2022/09/22 03:38:50;;;;;;;7.45;5.93;;;4.90;99.90;;;;;;5057484;28;20029;-72
2022/09/22 03:41:16;;;;;;;10.10;7.45;;;5.00;99.90;;;;;;5057698;28;20127;-72
2022/09/22 03:43:42;;;;;;;8.75;7.38;;;5.00;99.90;;;;;;5067578;28;20061;-72
2022/09/22 03:46:07;;;;;;;9.60;6.38;;;5.00;99.90;;;;;;5072561;28;20040;-72
2022/09/22 03:48:33;;;;;;;8.88;6.25;;;5.00;99.90;;;;;;5069477;28;20425;-73
2022/09/22 03:50:59;;;;;;;9.32;6.25;;;5.00;99.90;;;;;;5071170;28;20449;-72
2022/09/22 03:53:25;;;;;;;6.82;6.13;;;;;;;;;;5056397;28;20048;-72
2022/09/22 03:55:50;;;;;;;7.93;6.43;;;4.90;99.90;;;;;;5058655;28;20504;-73
2022/09/22 03:58:18;;;;;;;7.60;5.78;;;5.00;99.90;;;;;;5077377;28;20024;-74
2022/09/22 04:00:44;;;;;;;11.25;7.25;;;4.90;99.90;;;;;;5076230;28;20362;-73
2022/09/22 04:03:11;;;;;;;7.30;6.03;;;4.80;99.90;;;;;;5074132;28;20587;-73
2022/09/22 04:05:36;;;;;;;7.88;6.88;;;4.80;99.90;;;;;;5074135;28;20021;-73
2022/09/22 04:08:02;;;;;;;14.85;13.32;;;4.80;99.90;;;;;;5074087;28;20070;-73
2022/09/22 04:10:28;;;;;;;12.10;10.77;;;4.70;99.90;;;;;;5074459;28;20099;-72
2022/09/22 04:12:53;;;;;;;11.00;9.57;;;4.60;99.90;;;;;;5074232;28;20074;-72
2022/09/22 04:15:19;;;;;;;13.02;9.95;;;4.30;99.90;;;;;;5072796;28;20025;-73
2022/09/22 04:17:44;;;;;;;8.98;8.18;;;4.30;99.90;;;;;;5072642;28;20020;-71
2022/09/22 04:20:10;;;;;;;11.10;9.98;;;4.20;99.90;;;;;;5072747;28;20085;-70
2022/09/22 04:22:37;;;;;;;9.68;8.35;;;4.40;99.90;;;;;;5074055;28;20508;-71
2022/09/22 04:25:03;;;;;;;10.90;8.45;;;4.50;99.90;;;;;;5073809;28;20028;-71
2022/09/22 04:27:29;;;;;;;9.23;7.70;;;4.40;99.90;;;;;;5072234;28;20064;-71
2022/09/22 04:29:55;;;;;;;6.78;6.05;;;4.40;99.90;;;;;;5072621;28;20027;-72
2022/09/22 04:32:21;;;;;;;8.68;6.20;;;4.50;99.90;;;;;;5073900;28;20016;-71
2022/09/22 04:34:47;;;;;;;7.00;6.35;;;4.50;99.90;;;;;;5074288;28;20086;-71
2022/09/22 04:37:12;;;;;;;7.65;6.18;;;4.50;99.90;;;;;;5076719;28;20035;-72
2022/09/22 04:39:38;;;;;;;6.90;6.30;;;4.60;99.90;;;;;;5053765;28;20056;-73
2022/09/22 04:42:04;;;;;;;7.18;5.68;;;4.50;99.90;;;;;;5057230;28;20485;-73
2022/09/22 04:44:29;;;;;;;8.82;5.85;;;4.50;99.90;;;;;;5058536;28;20024;-73
2022/09/22 04:46:56;;;;;;;10.48;7.18;;;4.50;99.90;;;;;;5059780;28;20478;-72
2022/09/22 04:49:22;;;;;;;9.27;7.20;;;4.50;99.90;;;;;;5071718;28;20100;-72
2022/09/22 04:51:47;;;;;;;8.00;6.97;;;4.40;99.90;;;;;;5073103;28;20036;-72
2022/09/22 04:54:16;;;;;;;10.05;7.50;;;4.50;99.90;;;;;;5058290;28;20075;-73
2022/09/22 04:56:42;;;;;;;9.13;7.13;;;4.50;99.90;;;;;;5064460;28;20091;-71
2022/09/22 04:59:08;;;;;;;7.93;7.13;;;4.30;99.90;;;;;;5068440;28;20031;-71
2022/09/22 05:01:34;;;;;;;10.55;8.98;;;4.40;99.90;;;;;;5073258;28;20021;-72
2022/09/22 05:04:00;;;;;;;11.63;10.55;;;4.10;99.90;;;;;;5071331;28;20063;-72
2022/09/22 05:06:25;;;;;;;11.38;10.25;;;3.90;99.90;;;;;;5061925;28;20056;-71
2022/09/22 05:08:51;;;;;;;11.07;9.15;;;3.70;99.90;;;;;;5072776;28;20424;-71
2022/09/22 05:11:20;;;;;;;22.73;11.10;;;3.60;99.90;;;;;;5073012;28;20021;-72
2022/09/22 05:13:46;;;;;;;32.00;16.35;;;3.40;99.90;;;;;;5072731;28;20039;-71
2022/09/22 05:16:12;;;;;;;11.63;10.02;;;3.30;99.90;;;;;;5072843;28;20036;-71
2022/09/22 05:18:38;;;;;;;7.80;6.60;;;3.20;99.90;;;;;;5056256;28;20060;-71
2022/09/22 05:21:04;;;;;;;9.80;8.80;;;3.50;99.90;;;;;;5061087;28;20490;-71
2022/09/22 05:23:30;;;;;;;7.57;6.88;;;3.60;99.90;;;;;;5056417;28;20032;-72
2022/09/22 05:25:56;;;;;;;11.70;10.60;;;3.70;99.90;;;;;;5052586;28;20033;-71
2022/09/22 05:28:21;;;;;;;20.65;12.27;;;3.40;99.90;;;;;;5055513;28;20030;-72
2022/09/22 05:30:49;;;;;;;15.95;12.45;;;3.30;99.90;;;;;;5061946;28;20021;-71
2022/09/22 05:33:14;;;;;;;30.02;14.38;;;3.40;99.90;;;;;;5053996;28;20071;-71
2022/09/22 05:35:40;;;;;;;8.88;7.60;;;3.20;99.90;;;;;;5080244;28;20020;-71
2022/09/22 05:38:06;;;;;;;9.90;8.90;;;3.30;99.90;;;;;;5076344;28;20033;-71
2022/09/22 05:40:32;;;;;;;11.77;8.98;;;3.60;99.90;;;;;;5072614;28;20490;-72
2022/09/22 05:42:57;;;;;;;8.43;7.72;;;3.70;99.90;;;;;;5067154;28;20061;-72
2022/09/22 05:45:23;;;;;;;9.25;8.45;;;3.80;99.90;;;;;;5060579;28;20033;-71
2022/09/22 05:47:49;;;;;;;10.05;7.80;;;3.80;99.90;;;;;;5058955;28;20052;-71
2022/09/22 05:50:16;;;;;;;9.13;7.85;;;3.60;99.90;;;;;;5063761;28;20467;-72
2022/09/22 05:52:42;;;;;;;7.68;6.97;;;3.80;99.90;;;;;;5052993;28;20058;-71
2022/09/22 05:55:10;;;;;;;10.50;9.48;;;3.90;99.90;;;;;;5070935;28;20024;-72
2022/09/22 05:57:35;;;;;;;35.22;23.95;;;3.90;99.90;;;;;;5055702;28;20074;-71
2022/09/22 06:00:02;;;;;;;60.60;37.20;;;4.00;99.90;;;;;;5052024;28;20029;-71
2022/09/22 06:02:28;;;;;;;23.40;18.40;;;4.10;99.90;;;;;;5066485;28;20028;-72
2022/09/22 06:04:53;;;;;;;14.98;12.10;;;3.90;99.90;;;;;;5070756;28;20016;-72
2022/09/22 06:07:19;;;;;;;13.52;11.05;;;3.90;99.90;;;;;;5055569;28;20029;-71
2022/09/22 06:09:45;;;;;;;18.73;14.63;;;4.00;99.90;;;;;;5050713;28;20478;-71
2022/09/22 06:12:12;;;;;;;18.70;15.77;;;4.20;99.90;;;;;;5064470;28;20024;-72
2022/09/22 06:14:38;;;;;;;21.27;17.95;;;4.40;99.90;;;;;;5063317;28;20025;-72
2022/09/22 06:17:04;;;;;;;20.13;16.25;;;4.40;99.90;;;;;;5070500;28;20099;-72
2022/09/22 06:19:30;;;;;;;23.95;18.40;;;4.30;99.90;;;;;;5071212;28;20032;-72
2022/09/22 06:21:55;;;;;;;17.65;15.75;;;4.40;99.90;;;;;;5055848;28;20088;-73
2022/09/22 06:24:22;;;;;;;22.15;17.10;;;4.50;99.90;;;;;;5060402;28;20024;-72
2022/09/22 06:26:49;;;;;;;48.28;31.65;;;4.60;99.90;;;;;;5055124;28;20087;-74
2022/09/22 06:29:14;;;;;;;45.50;28.60;;;4.90;99.90;;;;;;5059451;28;20025;-72
2022/09/22 06:31:40;;;;;;;122.28;68.95;;;5.10;99.90;;;;;;5055924;28;20487;-72
2022/09/22 06:34:07;;;;;;;81.63;52.70;;;5.30;99.90;;;;;;5051724;28;20029;-72
2022/09/22 06:36:33;;;;;;;64.43;44.60;;;5.40;99.90;;;;;;5078642;28;20482;-72
2022/09/22 06:38:59;;;;;;;44.38;32.15;;;5.40;99.90;;;;;;5051255;28;20043;-72
2022/09/22 06:41:31;;;;;;;71.63;42.22;;;5.50;99.90;;;;;;5067995;28;20028;-72
2022/09/22 06:43:56;;;;;;;61.15;38.42;;;5.70;99.90;;;;;;5051565;28;20449;-73
2022/09/22 06:46:27;;;;;;;54.15;34.90;;;5.70;99.90;;;;;;5051294;28;20017;-72
2022/09/22 06:48:57;;;;;;;73.47;43.05;;;5.80;99.90;;;;;;5062494;28;20036;-72
2022/09/22 06:51:27;;;;;;;63.70;36.90;;;5.90;99.90;;;;;;5070110;28;20170;-71
2022/09/22 06:53:53;;;;;;;27.52;19.13;;;6.00;99.90;;;;;;5071595;28;20024;-72
2022/09/22 06:56:24;;;;;;;17.77;12.73;;;6.10;99.90;;;;;;5070161;28;20033;-72
2022/09/22 06:58:54;;;;;;;13.10;9.50;;;6.00;99.90;;;;;;5071239;28;20020;-72
2022/09/22 07:01:22;;;;;;;9.30;8.25;;;6.10;99.90;;;;;;5064560;28;20021;-73
2022/09/22 07:03:48;;;;;;;10.38;9.30;;;6.20;99.90;;;;;;5065147;28;20367;-72
2022/09/22 07:06:17;;;;;;;14.20;10.98;;;6.20;99.90;;;;;;5064115;28;20033;-73
2022/09/22 07:08:45;;;;;;;10.23;9.05;;;6.30;99.90;;;;;;5051068;28;20021;-72
2022/09/22 07:11:12;;;;;;;11.18;8.10;;;6.30;99.90;;;;;;5051180;28;20021;-72
2022/09/22 07:13:41;;;;;;;10.65;9.45;;;6.40;99.90;;;;;;5051055;28;20076;-72
2022/09/22 07:16:15;;;;;;;13.32;9.70;;;6.40;99.90;;;;;;5051158;28;20025;-73
2022/09/22 07:18:45;;;;;;;11.88;9.00;;;6.60;99.90;;;;;;5050962;28;20028;-73
2022/09/22 07:21:19;;;;;;;9.88;8.90;;;6.70;99.90;;;;;;5049868;28;20035;-72
2022/09/22 07:23:45;;;;;;;9.70;8.75;;;6.70;99.90;;;;;;5051105;28;20029;-72
2022/09/22 07:26:14;;;;;;;10.43;9.35;;;6.70;99.90;;;;;;5050903;28;20033;-73
2022/09/22 07:28:41;;;;;;;10.20;9.18;;;6.70;99.90;;;;;;5049544;28;20471;-71
2022/09/22 07:31:08;;;;;;;8.55;7.75;;;6.80;99.90;;;;;;5051128;28;20084;-71
2022/09/22 07:33:39;;;;;;;9.05;8.25;;;6.90;99.90;;;;;;5050966;28;20364;-72
2022/09/22 07:36:08;;;;;;;8.90;8.00;;;7.10;99.90;;;;;;5076246;28;20055;-72
2022/09/22 07:38:38;;;;;;;9.18;8.30;;;7.20;99.90;;;;;;5061482;28;20032;-73
2022/09/22 07:41:06;;;;;;;9.98;8.98;;;7.20;99.90;;;;;;5074814;28;20477;-73
2022/09/22 07:43:33;;;;;;;9.70;8.80;;;7.30;99.90;;;;;;5074554;28;20039;-72
2022/09/22 07:45:58;;;;;;;11.27;9.18;;;7.30;99.90;;;;;;5073243;28;20032;-76
2022/09/22 07:51:10;;;;;;;10.45;9.35;;;7.60;99.90;;;;;;5074839;28;20039;-73
2022/09/22 07:53:38;;;;;;;11.40;9.02;;;7.70;99.90;;;;;;5073305;28;20390;-72
2022/09/22 07:56:06;;;;;;;10.07;9.05;;;7.70;99.90;;;;;;5074339;28;20470;-73
2022/09/22 07:58:32;;;;;;;10.07;8.55;;;7.80;99.90;;;;;;5072864;28;20188;-73
2022/09/22 08:01:04;;;;;;;10.73;8.93;;;7.80;99.90;;;;;;5074407;28;20581;-72
2022/09/22 08:03:30;;;;;;;9.43;8.52;;;7.90;99.90;;;;;;5073108;28;20367;-73
2022/09/22 08:06:09;;;;;;;13.10;9.38;;;7.80;99.90;;;;;;5074054;28;20036;-73
2022/09/22 08:08:35;;;;;;;9.70;8.35;;;7.90;99.90;;;;;;5074383;28;20024;-73
2022/09/22 08:11:06;;;;;;;8.85;7.95;;;7.90;99.90;;;;;;5054864;28;20031;-72
2022/09/22 08:13:33;;;;;;;10.52;9.18;;;8.00;99.90;;;;;;5067427;28;20027;-73
2022/09/22 08:16:00;;;;;;;10.70;8.43;;;8.00;99.90;;;;;;5072771;28;20478;-72
2022/09/22 08:18:26;;;;;;;9.40;8.13;;;8.10;99.90;;;;;;5074032;28;20029;-72
2022/09/22 08:20:52;;;;;;;10.57;8.30;;;8.20;99.90;;;;;;5074057;28;20487;-72
2022/09/22 08:23:18;;;;;;;9.68;8.77;;;8.30;99.90;;;;;;5072649;28;20116;-73
2022/09/22 08:25:43;;;;;;;11.45;9.02;;;8.40;99.90;;;;;;5068628;28;20432;-72
2022/09/22 08:28:09;;;;;;;9.73;8.75;;;8.40;99.90;;;;;;5071373;28;20048;-73
2022/09/22 08:30:35;;;;;;;11.20;9.63;;;8.60;99.90;;;;;;5059217;28;20051;-72
2022/09/22 08:33:00;;;;;;;9.85;8.40;;;8.60;99.90;;;;;;5060982;28;20104;-73
2022/09/22 08:35:26;;;;;;;9.82;8.82;;;8.70;99.90;;;;;;5080787;28;20078;-72
2022/09/22 08:37:52;;;;;;;9.93;8.90;;;8.80;99.90;;;;;;5079847;28;20039;-73
2022/09/22 08:40:22;;;;;;;9.27;8.38;;;8.80;99.90;;;;;;5066718;28;20557;-73
2022/09/22 08:42:53;;;;;;;9.48;8.43;;;9.00;99.90;;;;;;5068247;28;20466;-73
2022/09/22 08:45:37;;;;;;;9.20;8.40;;;9.20;99.90;;;;;;5065094;28;20479;-74
2022/09/22 08:54:10;;;;;;;9.93;8.10;;;9.50;99.90;;;;;;5067011;28;20500;-74
2022/09/22 08:56:45;;;;;;;9.55;7.38;;;9.60;99.90;;;;;;5053248;28;20108;-72
2022/09/22 08:59:21;;;;;;;9.33;7.70;;;9.80;99.90;;;;;;5051939;28;20039;-73
2022/09/22 09:02:08;;;;;;;10.65;7.20;;;9.90;99.90;;;;;;5062748;28;20275;-72
2022/09/22 09:04:55;;;;;;;7.80;6.75;;;10.00;99.90;;;;;;5053202;28;20032;-72
2022/09/22 09:07:46;;;;;;;8.60;6.78;;;10.10;99.90;;;;;;5066329;28;20546;-73
2022/09/22 09:10:34;;;;;;;6.97;6.28;;;10.20;99.90;;;;;;5066519;28;20023;-73
2022/09/22 09:13:17;;;;;;;6.72;6.00;;;10.40;99.90;;;;;;5061645;28;20517;-72
2022/09/22 09:16:04;;;;;;;7.22;6.28;;;10.50;99.90;;;;;;5066857;28;20400;-73
2022/09/22 09:18:33;;;;;;;6.72;5.97;;;10.50;99.90;;;;;;5058053;28;20021;-72
2022/09/22 09:21:02;;;;;;;7.05;6.22;;;10.80;99.90;;;;;;5053000;28;20378;-72
2022/09/22 09:23:37;;;;;;;7.68;5.60;;;10.90;99.90;;;;;;5051614;28;20025;-73
2022/09/22 09:26:04;;;;;;;6.45;5.50;;;11.10;99.90;;;;;;5062932;28;20556;-73
2022/09/22 09:28:41;;;;;;;6.97;5.40;;;11.10;99.90;;;;;;5059294;28;20032;-74
2022/09/22 09:31:19;;;;;;;7.03;5.47;;;11.10;99.90;;;;;;5059773;28;20025;-72
2022/09/22 09:34:02;;;;;;;9.02;5.60;;;11.20;99.90;;;;;;5059650;28;20066;-73
2022/09/22 09:36:32;;;;;;;6.15;5.15;;;11.40;99.90;;;;;;5083836;28;20388;-73
2022/09/22 09:39:03;;;;;;;5.75;5.20;;;11.50;99.90;;;;;;5061930;28;20025;-73
2022/09/22 09:41:31;;;;;;;6.60;5.97;;;11.50;99.90;;;;;;5072540;28;20375;-72
2022/09/22 09:43:58;;;;;;;9.40;5.75;;;11.60;99.90;;;;;;5052569;28;20021;-73
2022/09/22 09:46:44;;;;;;;8.32;5.38;;;11.70;99.90;;;;;;5052320;28;20029;-72
2022/09/22 09:49:16;;;;;;;7.43;5.38;;;11.90;99.90;;;;;;5052272;28;20020;-71
2022/09/22 09:51:45;;;;;;;5.82;5.07;;;11.90;99.90;;;;;;5059577;28;20378;-73
2022/09/22 09:54:15;;;;;;;8.65;6.32;;;12.10;99.90;;;;;;5069044;28;20032;-73
2022/09/22 09:57:02;;;;;;;6.90;5.47;;;12.20;99.90;;;;;;5059836;28;20032;-73
2022/09/22 10:02:14;;;;;;;6.07;5.15;;;12.50;99.90;;;;;;5060056;28;20071;-73
2022/09/22 10:04:40;;;;;;;6.18;5.05;;;12.50;99.90;;;;;;5052269;28;20060;-72
2022/09/22 10:07:18;;;;;;;7.55;4.90;;;12.70;99.90;;;;;;5052213;28;20060;-73
2022/09/22 10:09:47;;;;;;;4.88;4.10;;;12.90;99.90;;;;;;5070685;28;20501;-73
2022/09/22 10:12:20;;;;;;;5.38;4.03;;;13.10;99.90;;;;;;5055616;28;20070;-73
2022/09/22 10:14:51;;;;;;;4.72;4.10;;;13.10;99.90;;;;;;5051123;28;20056;-73
2022/09/22 10:17:22;;;;;;;4.45;3.63;;;13.10;99.90;;;;;;5050500;28;20025;-72
2022/09/22 10:19:49;;;;;;;8.15;3.80;;;13.30;99.90;;;;;;5050360;28;20063;-73
2022/09/22 10:22:26;;;;;;;5.28;3.35;;;13.30;99.90;;;;;;5055315;28;20116;-73
2022/09/22 10:25:00;;;;;;;3.90;3.10;;;13.40;99.90;;;;;;5068610;28;20124;-73
2022/09/22 10:27:28;;;;;;;5.72;3.30;;;13.60;99.90;;;;;;5062198;28;20025;-73
2022/09/22 10:30:12;;;;;;;3.95;3.50;;;13.90;99.90;;;;;;5050097;28;20516;-73
2022/09/22 10:32:38;;;;;;;6.53;3.53;;;13.80;99.90;;;;;;5060476;28;20035;-72
2022/09/22 10:35:36;;;;;;;4.38;3.17;;;13.70;99.90;;;;;;5070771;28;20016;-72
2022/09/22 10:38:23;;;;;;;4.07;3.13;;;13.80;99.90;;;;;;5029479;28;20029;-74
2022/09/22 10:41:06;;;;;;;6.00;3.60;;;13.80;99.90;;;;;;5071687;28;20055;-74
2022/09/22 10:43:46;;;;;;;5.07;3.60;;;14.00;99.90;;;;;;5071764;28;20082;-76
2022/09/22 10:46:27;;;;;;;4.03;3.20;;;14.00;99.90;;;;;;5055964;28;20478;-74
2022/09/22 10:48:53;;;;;;;3.53;3.22;;;14.10;99.90;;;;;;5051372;28;20078;-74
2022/09/22 10:51:42;;;;;;;5.82;3.17;;;14.50;99.90;;;;;;5051559;28;20106;-74
2022/09/22 10:54:38;;;;;;;4.03;3.08;;;15.00;99.90;;;;;;5050122;28;20025;-72
2022/09/22 10:57:09;;;;;;;4.38;2.40;;;15.20;99.90;;;;;;5051204;28;20568;-75
2022/09/22 10:59:56;;;;;;;3.28;2.40;;;15.10;99.90;;;;;;5064785;28;20087;-75
2022/09/22 11:03:10;;;;;;;4.55;2.17;;;15.20;99.90;;;;;;5064746;28;20025;-76
2022/09/22 11:14:49;;;;;;;2.10;1.90;;;15.80;99.90;;;;;;5063830;28;20107;-76
2022/09/22 11:17:38;;;;;;;2.78;2.10;;;15.90;99.90;;;;;;5061780;28;20374;-74
2022/09/22 11:20:31;;;;;;;2.97;2.28;;;15.60;99.90;;;;;;5068409;28;20024;-74
2022/09/22 11:23:03;;;;;;;3.35;1.90;;;15.30;99.90;;;;;;5070311;28;20604;-74
2022/09/22 11:26:03;;;;;;;2.45;2.00;;;16.10;99.90;;;;;;5066847;28;20052;-74
2022/09/22 11:28:44;;;;;;;5.43;2.13;;;15.90;99.90;;;;;;5069440;28;20515;-74
2022/09/22 11:31:27;;;;;;;2.42;2.10;;;16.00;99.90;;;;;;5063187;28;20418;-74
2022/09/22 11:34:30;;;;;;;2.65;1.63;;;15.60;99.90;;;;;;5062277;28;20025;-75
2022/09/22 11:37:24;;;;;;;3.42;1.85;;;15.80;99.90;;;;;;5073548;28;20020;-74
2022/09/22 11:40:08;;;;;;;3.35;2.10;;;16.10;99.90;;;;;;5060177;28;20111;-75
2022/09/22 11:42:54;;;;;;;3.30;2.17;;;16.20;99.90;;;;;;5062599;28;20032;-75
2022/09/22 11:45:51;;;;;;;2.72;2.20;;;16.80;99.90;;;;;;5063250;28;20081;-75
2022/09/22 11:48:28;;;;;;;3.90;2.50;;;16.70;99.90;;;;;;5068817;28;20078;-75
2022/09/22 11:51:20;;;;;;;4.88;2.40;;;17.10;99.90;;;;;;5068254;28;20028;-75
2022/09/22 11:54:03;;;;;;;2.70;2.42;;;17.50;99.90;;;;;;5065583;28;20020;-75
2022/09/22 11:56:46;;;;;;;3.45;2.35;;;17.90;99.90;;;;;;5060986;28;20032;-76
2022/09/22 11:59:34;;;;;;;2.53;2.00;;;18.30;99.90;;;;;;5061141;28;20017;-76
2022/09/22 12:02:03;;;;;;;5.78;2.30;;;18.70;99.90;;;;;;5067756;28;20021;-75
2022/09/22 12:04:47;;;;;;;3.40;2.05;;;18.50;99.90;;;;;;5068133;28;20451;-75
2022/09/22 12:07:23;;;;;;;2.05;1.85;;;18.60;99.90;;;;;;5055249;28;20113;-76
2022/09/22 12:10:01;;;;;;;2.33;1.95;;;18.00;99.90;;;;;;5073162;28;20024;-77
2022/09/22 12:12:30;;;;;;;3.35;1.77;;;18.20;99.90;;;;;;5074331;28;20023;-77
2022/09/22 12:15:08;;;;;;;3.38;2.10;;;18.10;99.90;;;;;;5063258;28;20025;-76
2022/09/22 12:17:50;;;;;;;2.17;1.80;;;17.00;99.90;;;;;;5060102;28;20023;-76
2022/09/22 12:20:36;;;;;;;3.03;2.20;;;17.00;99.90;;;;;;5074198;28;20021;-75
2022/09/22 12:23:20;;;;;;;12.73;4.18;;;17.00;99.90;;;;;;5062239;28;20116;-76
2022/09/22 12:25:52;;;;;;;3.28;2.22;;;18.10;99.90;;;;;;5060896;28;20128;-75
2022/09/22 12:28:28;;;;;;;6.85;2.90;;;19.30;99.90;;;;;;5059600;28;20032;-76
2022/09/22 12:31:03;;;;;;;3.88;1.77;;;19.90;99.90;;;;;;5063451;28;20486;-76
2022/09/22 12:33:30;;;;;;;3.63;1.95;;;20.50;99.90;;;;;;5059534;28;20032;-74
2022/09/22 12:35:57;;;;;;;2.28;1.50;;;21.60;99.90;;;;;;5062665;28;20025;-74
2022/09/22 12:38:23;;;;;;;1.85;1.60;;;20.30;99.90;;;;;;5072348;28;20094;-73
2022/09/22 12:40:51;;;;;;;3.25;1.90;;;20.20;99.90;;;;;;5062379;28;20039;-73
2022/09/22 12:43:21;;;;;;;3.38;1.80;;;20.70;99.90;;;;;;5068415;28;20099;-73
2022/09/22 12:45:48;;;;;;;2.42;1.58;;;20.50;99.90;;;;;;5065284;28;20024;-73
2022/09/22 12:48:21;;;;;;;2.00;1.80;;;21.50;99.90;;;;;;5067672;28;20021;-74
2022/09/22 12:50:47;;;;;;;4.50;1.58;;;22.10;99.90;;;;;;5067022;28;20359;-74
2022/09/22 12:53:21;;;;;;;2.20;1.90;;;23.00;99.90;;;;;;5072456;28;20020;-73
2022/09/22 12:55:54;;;;;;;1.98;1.70;;;22.60;99.90;;;;;;5073276;28;20028;-73
2022/09/22 12:58:21;;;;;;;1.80;1.70;;;22.90;99.90;;;;;;5073172;28;20026;-73
2022/09/22 13:00:48;;;;;;;1.90;1.70;;;21.60;99.90;;;;;;5073311;28;20020;-73
2022/09/22 13:03:36;;;;;;;1.80;1.70;;;19.10;99.90;;;;;;5073287;28;20103;-72
2022/09/22 13:06:22;;;;;;;3.17;1.90;;;19.20;99.90;;;;;;5071766;28;20020;-73
2022/09/22 13:08:47;;;;;;;3.05;1.80;;;20.60;99.90;;;;;;5072928;28;20409;-73
2022/09/22 13:11:13;;;;;;;2.53;1.90;;;21.60;99.90;;;;;;5064228;28;20044;-73
2022/09/22 13:13:47;;;;;;;3.08;2.22;;;22.30;99.90;;;;;;5053115;28;20105;-73
2022/09/22 13:16:12;;;;;;;3.97;2.10;;;22.40;99.90;;;;;;5060467;28;20039;-74
2022/09/22 13:18:44;;;;;;;2.40;1.85;;;21.90;99.90;;;;;;5057487;28;20037;-74
2022/09/22 13:21:12;;;;;;;2.83;2.20;;;20.20;99.90;;;;;;5062537;28;20021;-74
2022/09/22 13:23:50;;;;;;;2.78;2.10;;;21.30;99.90;;;;;;5059434;28;20029;-74
2022/09/22 13:26:22;;;;;;;2.90;1.95;;;23.70;99.90;;;;;;5061333;28;20028;-74
2022/09/22 13:29:16;;;;;;;2.00;1.77;;;22.90;99.90;;;;;;5066068;28;20017;-74
2022/09/22 13:31:53;;;;;;;1.85;1.73;;;23.90;99.90;;;;;;5066281;28;20122;-74
2022/09/22 13:34:35;;;;;;;1.63;1.52;;;23.90;98.70;;;;;;5063503;28;20036;-74